createdAt,value
2022-11-03T00:02:21.180Z,7.57
2022-11-03T00:04:48.160Z,5.97
2022-11-03T00:07:21.662Z,6.50
2022-11-03T00:09:48.750Z,5.93
2022-11-03T00:12:15.924Z,8.17
2022-11-03T00:14:44.415Z,5.73
2022-11-03T00:17:11.310Z,6.00
2022-11-03T00:19:38.170Z,8.03
2022-11-03T00:22:05.944Z,5.27
2022-11-03T00:24:32.895Z,6.47
2022-11-03T00:27:00.132Z,6.57
2022-11-03T00:29:28.057Z,7.87
2022-11-03T00:31:55.905Z,5.13
2022-11-03T00:34:24.052Z,6.33
2022-11-03T00:36:50.909Z,6.07
2022-11-03T00:39:20.605Z,6.27
2022-11-03T00:41:47.543Z,7.10
2022-11-03T00:44:14.451Z,5.60
2022-11-03T00:46:41.359Z,5.37
2022-11-03T00:49:08.258Z,5.90
2022-11-03T00:51:36.112Z,4.97
2022-11-03T00:54:05.571Z,5.57
2022-11-03T00:56:39.151Z,4.90
2022-11-03T00:59:07.831Z,5.83
2022-11-03T01:01:47.300Z,4.63
2022-11-03T07:23:34.228Z,11.30
2022-11-03T07:26:04.274Z,7.90
2022-11-03T07:28:38.376Z,10.70
2022-11-03T07:31:38.508Z,8.43
2022-11-03T07:34:17.021Z,9.47
2022-11-03T07:36:48.972Z,10.90
2022-11-03T07:42:15.969Z,9.07
2022-11-03T07:44:44.992Z,9.00
2022-11-03T07:47:22.463Z,10.37
2022-11-03T07:52:41.361Z,8.57
2022-11-03T07:55:13.595Z,11.33
2022-11-03T07:57:43.572Z,9.73
2022-11-03T08:00:22.979Z,11.00
2022-11-03T08:03:01.425Z,9.43
2022-11-03T08:05:33.030Z,9.20
2022-11-03T08:08:05.228Z,8.90
2022-11-03T08:10:35.738Z,8.27
2022-11-03T08:15:53.674Z,10.87
2022-11-03T08:18:20.590Z,7.57
2022-11-03T08:20:48.820Z,7.77
2022-11-03T08:23:25.619Z,8.23
2022-11-03T08:25:56.699Z,8.57
2022-11-03T08:31:12.996Z,6.53
2022-11-03T08:36:24.131Z,6.60
2022-11-03T08:38:54.705Z,6.50
2022-11-03T08:41:21.918Z,7.17
2022-11-03T08:43:50.201Z,7.77
2022-11-03T08:46:21.635Z,5.67
2022-11-03T08:48:51.087Z,13.57
2022-11-03T08:54:04.951Z,7.50
2022-11-03T08:56:42.021Z,10.70
2022-11-03T08:59:11.264Z,9.00
2022-11-03T09:01:39.022Z,7.37
2022-11-03T09:04:12.560Z,7.67
2022-11-03T09:06:41.760Z,6.60
2022-11-03T09:12:04.244Z,8.07
2022-11-03T09:14:34.709Z,7.77
2022-11-03T09:17:06.079Z,6.87
2022-11-03T09:19:36.406Z,7.23
2022-11-03T09:22:13.418Z,7.53
2022-11-03T09:24:44.994Z,7.37
2022-11-03T09:27:13.226Z,7.00
2022-11-03T09:30:10.953Z,11.23
2022-11-03T09:32:35.409Z,7.83
2022-11-03T09:35:05.631Z,6.40
2022-11-03T09:37:34.586Z,8.73
2022-11-03T09:40:05.393Z,6.13
2022-11-03T09:45:20.395Z,8.07
2022-11-03T09:50:39.318Z,4.03
2022-11-03T09:53:14.161Z,5.17
2022-11-03T09:55:44.711Z,5.27
2022-11-03T09:58:15.568Z,5.70
2022-11-03T10:00:46.802Z,5.67
2022-11-03T10:06:02.357Z,4.43
2022-11-03T10:08:37.317Z,3.73
2022-11-03T10:11:09.273Z,5.57
2022-11-03T10:13:49.873Z,4.17
2022-11-03T10:16:20.620Z,4.83
2022-11-03T10:21:34.836Z,6.23
2022-11-03T10:24:02.094Z,4.90
2022-11-03T10:26:44.755Z,4.43
2022-11-03T10:29:28.838Z,8.33
2022-11-03T10:31:59.097Z,5.20
2022-11-03T10:34:41.747Z,5.37
2022-11-03T10:37:27.606Z,5.47
2022-11-03T10:39:59.219Z,4.13
2022-11-03T10:42:35.032Z,6.47
2022-11-03T10:45:25.934Z,4.93
2022-11-03T10:50:51.534Z,5.10
2022-11-03T10:53:22.131Z,3.87
2022-11-03T10:55:52.355Z,3.63
2022-11-03T10:58:22.726Z,4.50
2022-11-03T11:00:52.076Z,11.37
2022-11-03T11:03:23.154Z,5.03
2022-11-03T11:05:56.531Z,5.43
2022-11-03T11:08:26.954Z,4.73
2022-11-03T11:10:58.282Z,5.53
2022-11-03T11:13:29.094Z,4.23
2022-11-03T11:18:44.097Z,5.83
2022-11-03T11:21:22.250Z,4.83
2022-11-03T11:23:53.744Z,4.77
2022-11-03T11:26:36.333Z,5.23
2022-11-03T11:29:33.979Z,4.87
2022-11-03T11:32:41.737Z,3.57
2022-11-03T11:35:29.096Z,4.77
2022-11-03T11:38:18.375Z,5.20
2022-11-03T11:40:52.198Z,4.97
2022-11-03T11:43:28.750Z,4.83
2022-11-03T11:46:40.481Z,7.30
2022-11-03T11:51:53.616Z,5.47
2022-11-03T11:54:23.514Z,3.93
2022-11-03T11:56:54.565Z,4.40
2022-11-03T11:59:26.144Z,4.27
2022-11-03T12:01:57.906Z,4.83
2022-11-03T12:04:33.276Z,3.33
2022-11-03T12:07:02.440Z,5.57
2022-11-03T12:09:39.662Z,4.77
2022-11-03T12:12:08.918Z,6.03
2022-11-03T12:17:32.415Z,3.93
2022-11-03T12:20:02.859Z,3.53
2022-11-03T12:22:41.656Z,3.73
2022-11-03T12:25:40.365Z,3.93
2022-11-03T12:28:11.846Z,3.30
2022-11-03T12:30:42.569Z,4.57
2022-11-03T12:33:11.070Z,4.33
2022-11-03T12:35:39.308Z,4.80
2022-11-03T12:38:08.332Z,4.10
2022-11-03T12:40:40.182Z,4.93
2022-11-03T12:43:08.204Z,6.70
2022-11-03T12:45:38.212Z,6.70
2022-11-03T12:48:08.769Z,6.13
2022-11-03T12:50:41.001Z,4.70
2022-11-03T12:53:12.890Z,4.43
2022-11-03T12:55:44.858Z,4.67
2022-11-03T12:58:15.625Z,6.83
2022-11-03T13:06:15.410Z,5.73
2022-11-03T13:08:44.748Z,4.20
2022-11-03T13:11:32.350Z,6.53
2022-11-03T13:14:05.561Z,5.27
2022-11-03T13:16:36.780Z,5.00
2022-11-03T13:19:05.288Z,5.47
2022-11-03T13:21:36.891Z,7.23
2022-11-03T13:24:05.624Z,6.20
2022-11-03T13:26:36.086Z,5.90
2022-11-03T13:29:04.260Z,5.00
2022-11-03T13:31:32.761Z,5.43
2022-11-03T13:34:03.062Z,6.00
2022-11-03T13:36:34.950Z,5.63
2022-11-03T13:39:07.134Z,5.13
2022-11-03T13:41:38.536Z,7.10
2022-11-03T13:44:09.542Z,6.10
2022-11-03T13:46:40.340Z,5.87
2022-11-03T13:51:51.969Z,7.17
2022-11-03T14:05:48.415Z,6.63
2022-11-03T14:08:19.225Z,5.90
2022-11-03T14:10:47.839Z,6.47
2022-11-03T14:13:14.936Z,6.27
2022-11-03T14:15:44.109Z,8.93
2022-11-03T14:18:11.937Z,5.73
2022-11-03T14:23:23.963Z,6.00
2022-11-03T14:26:06.264Z,5.57
2022-11-03T14:28:44.865Z,6.53
2022-11-03T14:31:11.835Z,6.17
2022-11-03T14:33:51.486Z,8.60
2022-11-03T14:36:19.167Z,6.80
2022-11-03T14:38:50.079Z,6.77
2022-11-03T14:41:38.686Z,6.07
2022-11-03T14:46:53.183Z,7.63
2022-11-03T14:49:23.852Z,5.80
2022-11-03T14:51:54.565Z,6.10
2022-11-03T14:57:06.301Z,8.30
2022-11-03T15:02:18.565Z,7.63
2022-11-03T15:04:49.214Z,7.13
2022-11-03T15:07:19.301Z,5.53
2022-11-03T15:09:47.640Z,6.77
2022-11-03T15:12:16.419Z,7.47
2022-11-03T15:14:44.676Z,6.73
2022-11-03T15:17:12.902Z,6.97
2022-11-03T15:19:43.390Z,8.37
2022-11-03T15:22:14.461Z,9.77
2022-11-03T15:27:44.706Z,9.57
2022-11-03T15:30:16.120Z,5.87
2022-11-03T15:32:45.775Z,9.07
2022-11-03T15:35:16.032Z,6.60
2022-11-03T15:40:29.436Z,6.60
2022-11-03T15:43:02.982Z,8.23
2022-11-03T15:45:34.985Z,8.90
2022-11-03T15:50:51.755Z,7.70
2022-11-03T15:53:22.213Z,7.73
2022-11-03T15:55:52.452Z,7.63
2022-11-03T15:58:29.044Z,8.30
2022-11-03T16:01:07.145Z,8.07
2022-11-03T16:06:26.968Z,8.43
2022-11-03T16:09:05.961Z,7.37
2022-11-03T16:11:35.646Z,9.60
2022-11-03T16:14:05.379Z,7.20
2022-11-03T16:16:36.301Z,7.07
2022-11-03T16:21:47.270Z,8.13
2022-11-03T16:24:17.431Z,7.07
2022-11-03T16:26:47.768Z,8.90
2022-11-03T16:31:59.084Z,6.80
2022-11-03T16:37:13.344Z,6.93
2022-11-03T16:39:45.893Z,6.23
2022-11-03T16:42:16.152Z,7.03
2022-11-03T16:44:55.029Z,6.60
2022-11-03T16:47:25.427Z,8.50
2022-11-03T16:49:53.608Z,7.37
2022-11-03T16:52:23.688Z,7.93
2022-11-03T16:54:57.014Z,8.00
2022-11-03T16:57:27.372Z,5.70
2022-11-03T17:02:42.349Z,8.60
2022-11-03T17:07:57.473Z,10.00
2022-11-03T17:10:33.713Z,7.90
2022-11-03T17:13:06.197Z,8.03
2022-11-03T17:18:23.184Z,8.67
2022-11-03T17:20:54.248Z,8.03
2022-11-03T17:23:23.324Z,6.67
2022-11-03T17:25:55.447Z,7.60
2022-11-03T17:28:24.622Z,8.83
2022-11-03T17:31:00.531Z,10.13
2022-11-03T17:33:29.986Z,8.33
2022-11-03T17:36:08.195Z,7.73
2022-11-03T17:38:48.488Z,8.00
2022-11-03T17:41:24.679Z,7.93
2022-11-03T17:43:54.442Z,9.07
2022-11-03T17:46:35.494Z,10.77
2022-11-03T17:49:09.834Z,8.40
2022-11-03T17:51:43.990Z,9.77
2022-11-03T17:54:19.788Z,8.57
2022-11-03T17:56:49.255Z,10.93
2022-11-03T17:59:20.003Z,9.67
2022-11-03T18:04:34.403Z,11.77
2022-11-03T18:07:43.331Z,10.90
2022-11-03T18:10:22.361Z,11.40
2022-11-03T18:13:13.437Z,9.50
2022-11-03T18:15:44.756Z,11.77
2022-11-03T18:19:06.533Z,9.00
2022-11-03T18:21:38.381Z,11.20
2022-11-03T18:24:22.053Z,9.83
2022-11-03T18:26:53.649Z,9.60
2022-11-03T18:29:25.817Z,9.53
2022-11-03T18:34:45.545Z,9.90
2022-11-03T18:39:58.670Z,10.43
2022-11-03T18:42:35.494Z,8.50
2022-11-03T18:45:23.756Z,10.87
2022-11-03T18:47:55.389Z,10.93
2022-11-03T18:50:27.666Z,9.53
2022-11-03T18:53:05.553Z,9.40
2022-11-03T18:55:47.653Z,8.53
2022-11-03T18:58:29.386Z,8.40
2022-11-03T19:01:00.735Z,8.87
2022-11-03T19:03:39.419Z,8.87
2022-11-03T19:06:16.418Z,9.93
2022-11-03T19:08:49.173Z,9.97
2022-11-03T19:11:27.982Z,10.30
2022-11-03T19:14:00.727Z,11.83
2022-11-03T19:16:34.181Z,10.93
2022-11-03T19:19:05.592Z,9.73
2022-11-03T19:21:43.633Z,9.70
2022-11-03T19:24:13.241Z,10.20
2022-11-03T19:29:50.443Z,11.97
2022-11-03T19:32:32.401Z,13.03
2022-11-03T19:35:45.547Z,13.43
2022-11-03T19:41:26.454Z,15.13
2022-11-03T19:44:06.442Z,13.43
2022-11-03T19:46:44.103Z,14.53
2022-11-03T19:49:27.445Z,16.33
2022-11-03T19:52:05.347Z,15.73
2022-11-03T19:54:36.562Z,16.40
2022-11-03T19:57:13.910Z,15.33
2022-11-03T20:05:35.054Z,18.30
2022-11-03T20:08:16.993Z,16.77
2022-11-03T20:10:56.893Z,18.63
2022-11-03T20:13:43.431Z,17.67
2022-11-03T20:16:13.814Z,17.73
2022-11-03T20:18:52.512Z,18.57
2022-11-03T20:21:33.066Z,18.80
2022-11-03T20:27:14.365Z,19.60
2022-11-03T20:29:46.073Z,20.40
2022-11-03T20:32:22.889Z,20.00
2022-11-03T20:34:52.890Z,19.63
2022-11-03T20:37:32.235Z,19.10
2022-11-03T20:40:04.052Z,23.97
2022-11-03T20:42:45.290Z,20.30
2022-11-03T20:45:21.498Z,20.77
2022-11-03T20:50:37.372Z,23.27
2022-11-03T20:53:15.175Z,19.93
2022-11-03T20:55:42.605Z,21.63
2022-11-03T20:58:19.179Z,19.33
2022-11-03T21:00:50.850Z,19.60
2022-11-03T21:06:22.121Z,19.70
2022-11-03T21:08:57.362Z,23.33
2022-11-03T21:11:31.513Z,22.10
2022-11-03T21:14:30.817Z,24.07
2022-11-03T21:17:22.356Z,22.10
2022-11-03T21:20:14.529Z,22.17
2022-11-03T21:22:53.260Z,25.10
2022-11-03T21:25:36.443Z,26.40
2022-11-03T21:28:13.512Z,24.37
2022-11-03T21:30:44.321Z,25.27
2022-11-03T21:33:18.546Z,25.63
2022-11-03T21:35:54.493Z,29.77
2022-11-03T21:38:35.962Z,25.83
2022-11-03T21:41:27.759Z,26.23
2022-11-03T21:44:14.659Z,26.27
2022-11-03T21:49:48.567Z,24.43
2022-11-03T21:55:20.568Z,26.33
2022-11-03T22:00:36.565Z,26.53
2022-11-03T22:03:08.555Z,29.17
2022-11-03T22:05:40.079Z,26.77
2022-11-03T22:08:13.540Z,26.13
2022-11-03T22:13:27.247Z,26.10
2022-11-03T22:16:19.174Z,26.23
2022-11-03T22:18:47.118Z,27.17
2022-11-03T22:21:36.419Z,27.73
2022-11-03T22:24:26.429Z,28.43
2022-11-03T22:27:02.115Z,27.27
2022-11-03T22:29:51.413Z,27.03
2022-11-03T22:32:21.251Z,28.03
2022-11-03T22:35:10.631Z,29.53
2022-11-03T22:40:26.707Z,29.40
2022-11-03T22:43:14.343Z,28.57
2022-11-03T22:46:05.591Z,28.17
2022-11-03T22:48:33.829Z,28.73
2022-11-03T22:51:11.932Z,27.00
2022-11-03T22:54:05.112Z,28.53
2022-11-03T22:56:36.001Z,28.30
2022-11-03T22:59:04.609Z,29.23
2022-11-03T23:01:40.622Z,28.07
2022-11-03T23:04:12.754Z,27.80
2022-11-03T23:06:50.762Z,28.77
2022-11-03T23:09:20.314Z,26.87
2022-11-03T23:14:54.372Z,28.13
2022-11-03T23:17:45.696Z,29.53
2022-11-03T23:20:33.862Z,28.70
2022-11-03T23:25:46.598Z,27.43
2022-11-03T23:28:17.409Z,28.87
2022-11-03T23:33:29.212Z,30.20
2022-11-03T23:35:59.631Z,30.13
2022-11-03T23:38:31.369Z,29.60
2022-11-03T23:41:19.758Z,27.13
2022-11-03T23:43:49.742Z,27.67
2022-11-03T23:46:46.261Z,27.93
2022-11-03T23:49:18.134Z,27.30
2022-11-03T23:54:32.578Z,28.13
2022-11-03T23:57:21.764Z,27.37
2022-11-03T23:59:51.511Z,29.87
